Time;durP1;ratioP1;P1;durP2;ratioP2;P2;SDS_P1;SDS_P2;PMS_P1;PMS_P2;Temp;Humidity;BMP_temperature;BMP_pressure;BME280_temperature;BME280_humidity;BME280_pressure;Samples;Min_cycle;Max_cycle;Signal;HPM_P1;HPM_P2
2023/03/02 00:01:55;;;;;;;81.28;30.85;;;;;;;1.69;100.00;102632.31;2616175;36;20296;-53
2023/03/02 00:04:27;;;;;;;82.45;29.42;;;;;;;1.78;100.00;102631.25;2615125;36;20093;-54
2023/03/02 00:06:59;;;;;;;86.72;31.63;;;;;;;1.79;100.00;102619.72;2616003;36;20451;-54
2023/03/02 00:09:29;;;;;;;90.63;31.73;;;;;;;1.81;100.00;102615.25;2615093;36;20030;-54
2023/03/02 00:11:58;;;;;;;83.93;30.27;;;;;;;1.89;100.00;102621.25;2614954;36;20034;-54
2023/03/02 00:14:26;;;;;;;89.47;31.85;;;;;;;1.86;100.00;102613.38;2614972;36;20076;-57
2023/03/02 00:16:57;;;;;;;79.07;29.88;;;;;;;1.90;100.00;102604.41;2615785;36;20058;-52
2023/03/02 00:19:25;;;;;;;84.40;31.00;;;;;;;1.95;100.00;102599.84;2615492;36;20040;-56
2023/03/02 00:21:54;;;;;;;84.70;31.15;;;;;;;1.88;100.00;102604.44;2615300;31;20037;-54
2023/03/02 00:24:22;;;;;;;83.20;28.95;;;;;;;1.86;100.00;102594.78;2615538;36;20038;-52
2023/03/02 00:26:50;;;;;;;81.85;30.73;;;;;;;1.81;100.00;102599.31;2616034;36;20043;-54
2023/03/02 00:29:19;;;;;;;76.18;28.58;;;;;;;1.90;100.00;102601.78;2615012;36;20045;-53
2023/03/02 00:31:47;;;;;;;79.72;28.35;;;;;;;1.87;100.00;102604.47;2615032;36;20034;-54
2023/03/02 00:34:18;;;;;;;76.82;28.65;;;;;;;1.83;100.00;102601.03;2614492;36;20050;-55
2023/03/02 00:36:48;;;;;;;77.93;29.95;;;;;;;1.78;100.00;102597.59;2614155;36;20133;-52
2023/03/02 00:39:17;;;;;;;75.75;28.88;;;;;;;1.86;100.00;102600.09;2616034;36;20037;-54
2023/03/02 00:41:46;;;;;;;75.45;29.48;;;;;;;1.89;100.00;102600.00;2615049;31;20038;-54
2023/03/02 00:44:16;;;;;;;72.45;27.85;;;;;;;1.93;100.00;102599.03;2614737;36;20037;-56
2023/03/02 00:46:45;;;;;;;73.57;27.15;;;;;;;1.84;100.00;102593.91;2612929;36;20038;-52
2023/03/02 00:49:14;;;;;;;72.22;26.23;;;;;;;1.84;100.00;102584.19;2615664;36;20046;-55
2023/03/02 00:51:45;;;;;;;72.03;27.90;;;;;;;1.91;100.00;102585.78;2616030;36;20027;-55
2023/03/02 00:54:13;;;;;;;77.28;27.60;;;;;;;1.92;100.00;102590.16;2615202;36;20042;-53
2023/03/02 00:56:41;;;;;;;67.05;27.42;;;;;;;1.97;100.00;102591.84;2616521;32;20082;-51
2023/03/02 00:59:25;;;;;;;72.47;28.02;;;;;;;2.01;100.00;102588.22;2615283;31;20034;-55
2023/03/02 01:01:57;;;;;;;66.22;26.42;;;;;;;2.01;100.00;102594.38;2615233;36;20030;-55
2023/03/02 01:04:29;;;;;;;69.68;26.90;;;;;;;1.98;100.00;102594.47;2615391;36;20038;-59
2023/03/02 01:07:06;;;;;;;65.60;25.40;;;;;;;1.93;100.00;102596.38;2616001;36;20030;-55
2023/03/02 01:09:35;;;;;;;69.55;28.52;;;;;;;1.92;100.00;102595.47;2615664;36;20562;-54
2023/03/02 01:12:04;;;;;;;66.43;26.73;;;;;;;1.94;100.00;102590.13;2615519;36;20033;-53
2023/03/02 01:14:33;;;;;;;63.63;26.75;;;;;;;1.91;100.00;102584.91;2614186;36;20295;-54
2023/03/02 01:17:01;;;;;;;65.95;26.30;;;;;;;1.86;100.00;102589.47;2615173;36;20034;-54
2023/03/02 01:19:31;;;;;;;60.88;26.00;;;;;;;1.85;100.00;102588.56;2615020;36;20061;-53
2023/03/02 01:21:59;;;;;;;67.65;26.85;;;;;;;1.87;100.00;102583.22;2615623;36;20563;-51
2023/03/02 01:24:31;;;;;;;64.72;25.98;;;;;;;1.78;100.00;102583.47;2615432;31;20038;-56
2023/03/02 01:26:59;;;;;;;66.43;26.35;;;;;;;1.79;100.00;102577.25;2615942;36;20050;-53
2023/03/02 01:29:28;;;;;;;58.30;25.30;;;;;;;1.73;100.00;102579.13;2615807;36;20026;-53
2023/03/02 01:31:56;;;;;;;60.67;25.40;;;;;;;1.79;100.00;102574.59;2615582;36;20038;-53
2023/03/02 01:34:24;;;;;;;58.38;24.33;;;;;;;1.79;100.00;102580.75;2615850;36;20531;-52
2023/03/02 01:36:53;;;;;;;57.42;23.65;;;;;;;1.77;100.00;102577.28;2614649;36;20595;-54
2023/03/02 01:39:21;;;;;;;62.70;24.83;;;;;;;1.69;100.00;102577.47;2614765;36;20038;-50
2023/03/02 01:41:54;;;;;;;55.87;24.40;;;;;;;1.70;100.00;102579.19;2616950;36;20436;-57
2023/03/02 01:44:43;;;;;;;56.85;24.25;;;;;;;1.70;100.00;102583.66;2616645;36;20027;-52
2023/03/02 01:47:16;;;;;;;57.60;24.60;;;;;;;1.66;100.00;102574.88;2616287;36;20053;-50
2023/03/02 01:49:48;;;;;;;60.50;24.50;;;;;;;1.74;100.00;102578.22;2615083;36;20034;-53
2023/03/02 01:52:18;;;;;;;57.88;23.85;;;;;;;1.85;100.00;102575.28;2615556;31;20035;-48
2023/03/02 01:54:48;;;;;;;;;;;;;;;1.84;100.00;102580.66;2615722;36;20032;-53
2023/03/02 01:57:24;;;;;;;59.00;24.17;;;;;;;1.80;100.00;102574.56;2616309;36;19951;-57
2023/03/02 01:59:58;;;;;;;64.68;24.42;;;;;;;1.70;100.00;102563.28;2615645;36;20038;-48
2023/03/02 02:02:28;;;;;;;53.85;21.63;;;;;;;1.70;100.00;102571.22;2614810;31;20035;-57
2023/03/02 02:04:58;;;;;;;56.15;23.17;;;;;;;1.72;100.00;102574.75;2614819;36;20154;-52
2023/03/02 02:07:26;;;;;;;58.85;23.63;;;;;;;1.62;100.00;102573.22;2614804;36;20440;-51
2023/03/02 02:09:55;;;;;;;55.83;23.40;;;;;;;1.65;100.00;102569.59;2615035;36;20034;-56
2023/03/02 02:12:26;;;;;;;55.50;23.92;;;;;;;1.60;100.00;102568.84;2615752;36;20314;-52
2023/03/02 02:14:59;;;;;;;55.65;22.65;;;;;;;1.64;100.00;102573.19;2616075;36;20031;-59
2023/03/02 02:17:29;;;;;;;59.67;24.38;;;;;;;1.64;100.00;102570.53;2615660;36;20022;-59
2023/03/02 02:20:15;;;;;;;50.42;21.45;;;;;;;1.65;100.00;102572.25;2615723;36;20046;-52
2023/03/02 02:22:53;;;;;;;51.92;21.85;;;;;;;1.61;100.00;102567.94;2615850;36;20042;-54
2023/03/02 02:25:46;;;;;;;48.92;21.08;;;;;;;1.60;100.00;102564.41;2615332;36;20038;-53
2023/03/02 02:28:22;;;;;;;51.10;22.70;;;;;;;1.58;100.00;102560.91;2615181;36;20037;-56
2023/03/02 02:30:53;;;;;;;53.00;21.58;;;;;;;1.61;100.00;102560.84;2615482;36;20581;-57
2023/03/02 02:33:26;;;;;;;50.65;21.00;;;;;;;1.56;100.00;102553.00;2615184;36;20034;-53
2023/03/02 02:35:57;;;;;;;54.53;22.73;;;;;;;1.51;100.00;102556.66;2615940;36;20027;-53
2023/03/02 02:38:26;;;;;;;54.25;22.35;;;;;;;1.53;100.00;102544.22;2616262;36;20491;-60
2023/03/02 02:40:56;;;;;;;;;;;;;;;1.56;100.00;102538.84;2615746;36;20041;-56
2023/03/02 02:43:31;;;;;;;53.58;22.08;;;;;;;1.45;100.00;102539.09;2615888;36;19938;-52
2023/03/02 02:46:01;;;;;;;53.55;22.38;;;;;;;1.50;100.00;102549.59;2616245;36;20049;-55
2023/03/02 02:48:32;;;;;;;54.90;22.83;;;;;;;1.48;100.00;102540.81;2614663;36;20469;-55
2023/03/02 02:51:02;;;;;;;47.13;20.90;;;;;;;1.48;100.00;102540.81;2615994;36;20720;-55
2023/03/02 02:53:36;;;;;;;51.63;22.15;;;;;;;1.37;100.00;102543.69;2616012;36;20542;-53
2023/03/02 02:56:07;;;;;;;51.78;20.67;;;;;;;1.36;100.00;102542.84;2615594;31;20023;-56
2023/03/02 02:58:43;;;;;;;50.13;21.27;;;;;;;1.36;100.00;102542.84;2615837;31;20045;-53
2023/03/02 03:01:14;;;;;;;49.72;19.45;;;;;;;1.28;100.00;102554.53;2615835;31;20027;-53
2023/03/02 03:03:51;;;;;;;52.75;21.17;;;;;;;1.24;100.00;102543.13;2615076;31;20034;-57
2023/03/02 03:06:24;;;;;;;58.08;20.48;;;;;;;1.19;100.00;102553.84;2616823;31;20546;-49
2023/03/02 03:08:56;;;;;;;51.05;21.80;;;;;;;1.19;100.00;102545.00;2615915;36;20038;-56
2023/03/02 03:11:27;;;;;;;52.10;21.27;;;;;;;1.15;100.00;102548.59;2617015;36;20038;-57
2023/03/02 03:14:06;;;;;;;47.47;19.95;;;;;;;1.16;100.00;102553.03;2614738;36;20038;-47
2023/03/02 03:16:35;;;;;;;47.63;21.67;;;;;;;1.12;100.00;102549.56;2615414;36;20027;-54
2023/03/02 03:19:09;;;;;;;49.10;20.17;;;;;;;1.05;100.00;102548.81;2615832;36;20043;-54
2023/03/02 03:21:38;;;;;;;49.28;21.55;;;;;;;1.09;100.00;102538.16;2616126;36;20041;-54
2023/03/02 03:24:07;;;;;;;47.22;20.73;;;;;;;1.16;100.00;102550.38;2616408;36;20030;-52
2023/03/02 03:26:35;;;;;;;49.25;20.98;;;;;;;1.21;100.00;102537.91;2616777;36;20022;-54
2023/03/02 03:29:06;;;;;;;50.28;20.90;;;;;;;1.10;100.00;102535.47;2616005;36;20034;-56
2023/03/02 03:31:35;;;;;;;47.35;21.20;;;;;;;1.02;100.00;102535.63;2616750;36;20039;-60
2023/03/02 03:34:03;;;;;;;48.63;20.80;;;;;;;1.06;100.00;102539.09;2615951;36;20037;-55
2023/03/02 03:36:33;;;;;;;54.55;22.00;;;;;;;0.96;100.00;102533.13;2616540;36;20464;-54
2023/03/02 03:39:02;;;;;;;;;;;;;;;1.00;100.00;102540.09;2616678;36;20022;-57
2023/03/02 03:41:30;;;;;;;;;;;;;;;0.91;100.00;102534.13;2617236;31;20447;-54
2023/03/02 03:43:59;;;;;;;56.22;25.30;;;;;;;0.99;100.00;102534.84;2615868;36;19950;-57
2023/03/02 03:46:30;;;;;;;57.35;23.42;;;;;;;0.99;100.00;102527.75;2616152;36;20026;-59
2023/03/02 03:48:58;;;;;;;68.63;22.80;;;;;;;0.89;100.00;102526.19;2615703;36;20034;-52
2023/03/02 03:51:27;;;;;;;50.03;21.13;;;;;;;0.95;100.00;102535.81;2616301;36;20035;-55
2023/03/02 03:54:01;;;;;;;51.85;21.85;;;;;;;0.91;100.00;102550.88;2616266;36;20295;-55
2023/03/02 03:56:30;;;;;;;55.92;23.55;;;;;;;0.92;100.00;102544.69;2616414;36;20073;-57
2023/03/02 03:59:05;;;;;;;57.30;22.98;;;;;;;0.98;100.00;102535.72;2616017;36;20042;-51
2023/03/02 04:01:37;;;;;;;53.80;22.25;;;;;;;0.92;100.00;102546.47;2616337;36;20030;-56
2023/03/02 04:04:07;;;;;;;59.50;24.55;;;;;;;0.90;100.00;102541.22;2615551;36;20444;-58
2023/03/02 04:06:36;;;;;;;59.63;23.65;;;;;;;0.93;100.00;102549.09;2616303;36;20034;-58
2023/03/02 04:09:06;;;;;;;56.67;22.13;;;;;;;0.98;100.00;102549.00;2615941;36;20045;-57
2023/03/02 04:11:35;;;;;;;58.55;22.23;;;;;;;0.92;100.00;102546.47;2616310;36;20034;-52
2023/03/02 04:14:04;;;;;;;56.65;22.27;;;;;;;0.90;100.00;102549.16;2615623;31;20034;-57
2023/03/02 04:16:33;;;;;;;60.05;23.45;;;;;;;1.02;100.00;102548.03;2615875;36;20057;-50
2023/03/02 04:19:08;;;;;;;59.92;22.17;;;;;;;0.98;100.00;102549.84;2615813;36;20030;-52
2023/03/02 04:21:39;;;;;;;60.13;23.45;;;;;;;0.95;100.00;102544.63;2616372;36;20069;-55
2023/03/02 04:24:08;;;;;;;61.75;22.73;;;;;;;1.01;100.00;102541.84;2616057;31;20523;-53
2023/03/02 04:26:38;;;;;;;53.35;22.50;;;;;;;1.09;100.00;102532.84;2616345;36;20042;-51
2023/03/02 04:29:07;;;;;;;59.78;23.52;;;;;;;1.15;100.00;102532.69;2615958;36;20552;-47
2023/03/02 04:31:36;;;;;;;64.88;24.13;;;;;;;1.04;100.00;102533.81;2616804;36;20408;-57
2023/03/02 04:34:07;;;;;;;65.70;23.77;;;;;;;1.08;100.00;102531.13;2615149;36;20041;-52
2023/03/02 04:36:39;;;;;;;69.68;26.23;;;;;;;1.02;100.00;102532.97;2616069;36;20030;-51
2023/03/02 04:39:08;;;;;;;60.47;24.08;;;;;;;1.07;100.00;102524.06;2616222;36;20042;-51
2023/03/02 04:41:37;;;;;;;61.88;23.58;;;;;;;1.08;100.00;102531.97;2616322;31;20027;-55
2023/03/02 04:44:06;;;;;;;60.92;22.92;;;;;;;1.11;100.00;102525.75;2615529;36;20030;-53
2023/03/02 04:46:35;;;;;;;58.80;24.75;;;;;;;0.98;100.00;102539.25;2616204;31;20042;-54
2023/03/02 04:49:03;;;;;;;58.40;23.80;;;;;;;0.87;100.00;102535.97;2615642;31;20023;-56
2023/03/02 04:51:37;;;;;;;60.80;24.67;;;;;;;0.81;100.00;102525.47;2616185;36;20042;-53
2023/03/02 04:54:09;;;;;;;65.93;24.42;;;;;;;0.80;100.00;102531.69;2616062;36;20445;-55
2023/03/02 04:56:37;;;;;;;62.45;21.65;;;;;;;0.90;100.00;102533.25;2616292;36;20030;-52
2023/03/02 04:59:05;;;;;;;61.78;25.65;;;;;;;0.94;100.00;102540.22;2616063;36;20030;-58
2023/03/02 05:01:34;;;;;;;60.20;25.23;;;;;;;1.00;100.00;102529.50;2616200;36;20111;-54
2023/03/02 05:04:03;;;;;;;63.15;24.23;;;;;;;0.89;100.00;102533.28;2616412;31;20424;-56
2023/03/02 05:06:34;;;;;;;65.95;25.15;;;;;;;0.79;100.00;102532.59;2615465;36;20049;-56
2023/03/02 05:09:06;;;;;;;62.90;24.27;;;;;;;0.69;100.00;102522.19;2616515;36;20436;-52
2023/03/02 05:11:34;;;;;;;58.13;22.92;;;;;;;0.68;100.00;102528.38;2616033;36;20026;-52
2023/03/02 05:14:05;;;;;;;62.07;25.23;;;;;;;0.54;100.00;102525.13;2614971;36;20594;-53
2023/03/02 05:16:35;;;;;;;61.50;24.77;;;;;;;0.57;100.00;102535.66;2616167;36;20050;-54
2023/03/02 05:19:05;;;;;;;69.90;24.27;;;;;;;0.55;100.00;102537.50;2615391;36;20526;-56
2023/03/02 05:21:37;;;;;;;62.92;22.73;;;;;;;0.56;100.00;102544.53;2616151;36;20042;-52
2023/03/02 05:24:05;;;;;;;60.05;23.52;;;;;;;0.70;100.00;102553.06;2615449;36;20026;-56
2023/03/02 05:26:34;;;;;;;57.80;22.75;;;;;;;0.69;100.00;102551.34;2616832;36;20470;-54
2023/03/02 05:29:02;;;;;;;60.35;23.48;;;;;;;0.64;100.00;102539.09;2615511;36;20550;-47
2023/03/02 05:31:33;;;;;;;61.00;23.85;;;;;;;0.74;100.00;102534.44;2617570;31;20038;-54
2023/03/02 05:34:02;;;;;;;60.13;23.63;;;;;;;0.78;100.00;102538.78;2632996;36;20121;-51
2023/03/02 05:36:30;;;;;;;56.88;22.05;;;;;;;0.76;100.00;102546.78;2615930;36;20062;-51
2023/03/02 05:39:02;;;;;;;62.85;23.65;;;;;;;0.82;100.00;102546.66;2616766;31;20127;-51
2023/03/02 05:41:30;;;;;;;57.33;22.50;;;;;;;0.86;100.00;102539.53;2616320;36;20026;-55
2023/03/02 05:43:59;;;;;;;58.15;22.88;;;;;;;0.99;100.00;102538.34;2615670;36;20030;-52
2023/03/02 05:46:27;;;;;;;62.17;23.70;;;;;;;0.81;100.00;102534.31;2615832;36;20034;-54
2023/03/02 05:48:56;;;;;;;59.22;23.67;;;;;;;0.68;100.00;102539.00;2615413;36;20026;-53
2023/03/02 05:51:25;;;;;;;57.80;23.77;;;;;;;0.72;100.00;102538.91;2615833;36;20033;-52
2023/03/02 05:53:53;;;;;;;57.80;23.25;;;;;;;0.76;100.00;102541.47;2615931;36;20034;-56
2023/03/02 05:56:24;;;;;;;62.28;25.10;;;;;;;0.77;100.00;102552.97;2615785;36;20026;-53
2023/03/02 05:58:52;;;;;;;59.22;22.50;;;;;;;0.78;100.00;102533.50;2615652;36;20618;-55
2023/03/02 06:01:21;;;;;;;61.38;22.50;;;;;;;0.84;100.00;102541.31;2615173;36;20049;-56
2023/03/02 06:03:49;;;;;;;61.60;23.45;;;;;;;0.85;100.00;102538.66;2614694;36;20034;-54
2023/03/02 06:06:18;;;;;;;55.47;23.02;;;;;;;0.84;100.00;102538.66;2615563;36;20038;-55
2023/03/02 06:08:46;;;;;;;59.40;22.83;;;;;;;0.74;100.00;102531.81;2615750;36;20050;-55
2023/03/02 06:11:15;;;;;;;60.53;22.52;;;;;;;0.82;100.00;102529.88;2614661;36;20043;-56
2023/03/02 06:13:46;;;;;;;56.60;22.40;;;;;;;0.77;100.00;102534.41;2614498;31;20027;-53
2023/03/02 06:16:14;;;;;;;53.40;21.80;;;;;;;0.77;100.00;102534.41;2616342;36;20043;-54
2023/03/02 06:18:42;;;;;;;56.65;21.50;;;;;;;0.75;100.00;102539.75;2615233;36;20023;-51
2023/03/02 06:21:11;;;;;;;57.20;21.67;;;;;;;0.72;100.00;102534.47;2615742;31;21621;-51
2023/03/02 06:23:39;;;;;;;55.53;21.08;;;;;;;0.66;100.00;102531.97;2615117;36;20121;-51
2023/03/02 06:26:12;;;;;;;50.05;20.85;;;;;;;0.54;100.00;102543.69;2615841;36;20616;-52
2023/03/02 06:28:40;;;;;;;52.85;22.05;;;;;;;0.53;100.00;102549.91;2615051;31;20046;-50
2023/03/02 06:31:11;;;;;;;56.35;22.33;;;;;;;0.40;100.00;102551.00;2613562;36;20034;-55
2023/03/02 06:33:40;;;;;;;53.40;22.13;;;;;;;0.42;100.00;102554.53;2614591;36;20054;-56
2023/03/02 06:36:11;;;;;;;52.22;21.13;;;;;;;0.36;100.00;102552.84;2615559;36;20030;-57
2023/03/02 06:38:39;;;;;;;48.40;20.20;;;;;;;0.38;100.00;102550.19;2615829;36;20083;-56
2023/03/02 06:41:07;;;;;;;52.03;21.20;;;;;;;0.28;100.00;102563.59;2617018;31;20574;-52
2023/03/02 06:43:36;;;;;;;55.80;20.77;;;;;;;0.29;100.00;102564.47;2615363;36;20042;-55
2023/03/02 06:46:04;;;;;;;55.08;22.92;;;;;;;0.24;100.00;102561.91;2616367;36;20026;-56
2023/03/02 06:48:35;;;;;;;51.50;21.55;;;;;;;0.25;100.00;102571.59;2615842;36;20045;-53
2023/03/02 06:51:04;;;;;;;50.40;22.35;;;;;;;0.28;100.00;102571.53;2615626;31;20045;-53
2023/03/02 06:53:32;;;;;;;53.28;20.80;;;;;;;0.35;100.00;102580.22;2616625;36;20033;-51
2023/03/02 06:56:00;;;;;;;57.75;21.55;;;;;;;0.48;100.00;102578.25;2617138;36;20597;-54
2023/03/02 06:58:28;;;;;;;53.17;19.83;;;;;;;0.64;100.00;102582.34;2616671;36;20046;-57
2023/03/02 07:00:57;;;;;;;65.30;22.83;;;;;;;0.72;100.00;102581.31;2617299;31;20031;-57
2023/03/02 07:03:25;;;;;;;48.78;21.27;;;;;;;0.74;100.00;102584.81;2616348;36;20034;-55
2023/03/02 07:05:56;;;;;;;59.55;21.73;;;;;;;0.66;100.00;102583.22;2616578;36;20035;-62
2023/03/02 07:08:24;;;;;;;52.65;19.65;;;;;;;0.71;100.00;102580.47;2615681;36;20034;-51
2023/03/02 07:10:53;;;;;;;51.95;20.20;;;;;;;0.73;100.00;102583.09;2615590;36;20049;-52
2023/03/02 07:13:21;;;;;;;48.58;19.55;;;;;;;0.64;100.00;102574.41;2616059;36;20419;-55
2023/03/02 07:15:49;;;;;;;48.57;20.27;;;;;;;0.74;100.00;102576.84;2616016;36;20038;-56
2023/03/02 07:18:18;;;;;;;51.28;20.55;;;;;;;0.63;100.00;102567.38;2615906;36;20439;-57
2023/03/02 07:20:46;;;;;;;50.72;20.52;;;;;;;0.65;100.00;102570.84;2614679;36;20027;-60
2023/03/02 07:23:17;;;;;;;49.47;20.02;;;;;;;0.72;100.00;102573.38;2613412;31;20030;-54
2023/03/02 07:25:45;;;;;;;49.45;20.27;;;;;;;0.66;100.00;102572.59;2615775;36;20034;-56
2023/03/02 07:28:14;;;;;;;49.00;19.02;;;;;;;0.56;100.00;102581.63;2615380;36;20042;-53
2023/03/02 07:30:42;;;;;;;55.70;20.20;;;;;;;0.70;100.00;102579.56;2615050;36;20068;-51
2023/03/02 07:33:10;;;;;;;50.03;21.38;;;;;;;0.63;100.00;102575.31;2616079;36;20041;-54
2023/03/02 07:35:38;;;;;;;55.40;20.50;;;;;;;0.77;100.00;102564.44;2616428;36;20045;-57
2023/03/02 07:38:07;;;;;;;54.47;20.63;;;;;;;0.82;100.00;102567.00;2616728;36;20045;-54
2023/03/02 07:40:41;;;;;;;53.60;21.08;;;;;;;0.84;100.00;102567.81;2615498;36;20030;-55
2023/03/02 07:43:10;;;;;;;54.00;20.60;;;;;;;0.92;100.00;102562.38;2616018;36;20045;-50
2023/03/02 07:45:39;;;;;;;51.78;21.02;;;;;;;1.03;100.00;102553.28;2615638;36;20034;-57
2023/03/02 07:48:08;;;;;;;50.63;20.02;;;;;;;1.04;100.00;102557.66;2615392;31;20544;-56
2023/03/02 07:50:36;;;;;;;50.55;19.92;;;;;;;1.22;100.00;102560.84;2615006;36;20023;-57
2023/03/02 07:53:04;;;;;;;47.40;20.17;;;;;;;1.19;100.00;102555.59;2616105;36;20555;-56
2023/03/02 07:55:33;;;;;;;47.42;17.85;;;;;;;1.17;100.00;102552.97;2616073;31;20038;-53
2023/03/02 07:58:04;;;;;;;53.60;20.35;;;;;;;1.18;100.00;102561.84;2616434;36;20337;-57
2023/03/02 08:00:32;;;;;;;48.03;20.67;;;;;;;1.35;100.00;102557.00;2615453;36;20563;-55
2023/03/02 08:03:00;;;;;;;51.40;20.25;;;;;;;1.37;100.00;102549.00;2615617;36;20054;-53
2023/03/02 08:05:29;;;;;;;48.53;18.95;;;;;;;1.48;100.00;102554.94;2615912;36;20046;-53
2023/03/02 08:07:57;;;;;;;48.22;20.02;;;;;;;1.39;100.00;102566.63;2615760;36;20034;-55
2023/03/02 08:10:25;;;;;;;44.15;19.50;;;;;;;1.47;100.00;102557.63;2615869;36;20061;-56
2023/03/02 08:12:54;;;;;;;44.30;19.02;;;;;;;1.28;100.00;102566.03;2615879;36;20582;-54
2023/03/02 08:15:25;;;;;;;47.58;18.23;;;;;;;1.42;100.00;102551.56;2615831;36;20038;-57
2023/03/02 08:17:53;;;;;;;44.45;18.10;;;;;;;1.58;100.00;102559.13;2616225;36;20542;-56
2023/03/02 08:20:21;;;;;;;47.35;18.98;;;;;;;1.91;100.00;102561.00;2615636;31;20026;-52
2023/03/02 08:22:50;;;;;;;39.35;17.58;;;;;;;1.98;100.00;102549.31;2615675;36;20042;-53
2023/03/02 08:25:19;;;;;;;49.42;18.80;;;;;;;1.87;100.00;102548.72;2615420;31;20415;-50
2023/03/02 08:27:48;;;;;;;40.85;17.20;;;;;;;1.94;100.00;102550.31;2615548;36;20042;-53
2023/03/02 08:30:16;;;;;;;48.95;19.10;;;;;;;2.08;100.00;102550.81;2617156;36;20489;-51
2023/03/02 08:32:54;;;;;;;40.92;17.58;;;;;;;2.04;100.00;102551.81;2616142;54;20034;-55
2023/03/02 08:35:23;;;;;;;39.78;17.33;;;;;;;2.06;100.00;102555.31;2615199;36;20038;-54
2023/03/02 08:37:51;;;;;;;45.15;19.23;;;;;;;2.05;100.00;102553.56;2615897;36;20053;-59
2023/03/02 08:40:20;;;;;;;43.40;17.48;;;;;;;2.09;100.00;102544.63;2616201;36;20042;-56
2023/03/02 08:42:48;;;;;;;40.23;16.87;;;;;;;2.17;100.00;102559.47;2616614;31;20594;-58
2023/03/02 08:45:19;;;;;;;46.30;19.20;;;;;;;2.20;100.00;102543.47;2615428;36;20041;-55
2023/03/02 08:47:47;;;;;;;46.35;18.70;;;;;;;2.25;100.00;102549.50;2616017;36;20311;-54
2023/03/02 08:50:19;;;;;;;42.88;17.98;;;;;;;2.58;100.00;102550.38;2616095;36;20026;-54
2023/03/02 08:52:47;;;;;;;41.85;18.30;;;;;;;2.62;100.00;102537.88;2616308;36;20026;-54
2023/03/02 08:55:17;;;;;;;48.00;20.75;;;;;;;2.66;100.00;102544.84;2615825;36;20467;-56
2023/03/02 08:57:46;;;;;;;46.92;19.80;;;;;;;2.72;100.00;102534.03;2616785;36;20438;-53
2023/03/02 09:00:17;;;;;;;48.40;19.15;;;;;;;2.70;100.00;102546.50;2617029;31;20549;-55
2023/03/02 09:02:45;;;;;;;47.97;20.08;;;;;;;2.61;100.00;102541.47;2615453;36;20041;-51
2023/03/02 09:05:14;;;;;;;42.25;17.90;;;;;;;2.67;100.00;102545.75;2615674;36;20535;-51
2023/03/02 09:07:45;;;;;;;42.80;17.50;;;;;;;2.82;100.00;102545.28;2615613;36;20564;-57
2023/03/02 09:10:13;;;;;;;40.78;18.55;;;;;;;2.63;100.00;102544.94;2614932;36;20034;-55
2023/03/02 09:12:42;;;;;;;46.58;19.33;;;;;;;2.60;100.00;102550.34;2616404;36;20045;-55
2023/03/02 09:15:11;;;;;;;36.95;17.60;;;;;;;2.77;100.00;102549.88;2615306;36;20038;-54
2023/03/02 09:17:39;;;;;;;39.85;16.60;;;;;;;2.62;100.00;102552.06;2615428;36;20065;-56
2023/03/02 09:20:09;;;;;;;42.60;18.55;;;;;;;2.68;100.00;102551.00;2614921;36;20041;-57
2023/03/02 09:22:37;;;;;;;36.55;16.10;;;;;;;2.65;100.00;102544.91;2615677;36;20023;-56
2023/03/02 09:25:09;;;;;;;40.30;18.00;;;;;;;2.91;100.00;102546.81;2615663;36;20057;-51
2023/03/02 09:27:37;;;;;;;39.42;17.45;;;;;;;2.95;100.00;102551.13;2615991;36;20045;-54
2023/03/02 09:30:10;;;;;;;37.45;16.95;;;;;;;2.98;100.00;102549.25;2616555;36;20027;-55
2023/03/02 09:32:39;;;;;;;39.67;16.65;;;;;;;3.31;100.00;102553.59;2615131;36;20041;-57
2023/03/02 09:35:08;;;;;;;37.25;17.52;;;;;;;3.49;100.00;102537.06;2616598;36;20048;-56
2023/03/02 09:37:37;;;;;;;36.90;14.90;;;;;;;3.58;100.00;102542.97;2615362;31;20034;-57
2023/03/02 09:40:19;;;;;;;36.30;17.45;;;;;;;3.67;100.00;102546.22;2614870;36;20049;-51
2023/03/02 09:43:02;;;;;;;36.40;16.88;;;;;;;3.67;100.00;102543.56;2614489;32;20027;-57
2023/03/02 09:45:41;;;;;;;41.20;16.73;;;;;;;3.66;100.00;102548.94;2615016;36;20045;-55
2023/03/02 09:48:19;;;;;;;39.83;17.33;;;;;;;3.84;100.00;102552.78;2614779;36;20034;-56
2023/03/02 09:50:56;;;;;;;35.95;16.27;;;;;;;3.98;100.00;102549.69;2616163;36;20042;-54
2023/03/02 09:53:35;;;;;;;38.05;17.83;;;;;;;4.14;100.00;102550.91;2613634;36;20042;-52
2023/03/02 09:56:16;;;;;;;42.35;19.50;;;;;;;3.98;100.00;102552.34;2615009;36;20031;-55
2023/03/02 09:58:53;;;;;;;44.17;17.83;;;;;;;4.12;100.00;102558.09;2615239;36;20038;-56
2023/03/02 10:01:38;;;;;;;41.25;17.55;;;;;;;4.20;100.00;102550.69;2615017;36;20058;-56
2023/03/02 10:04:26;;;;;;;42.45;17.67;;;;;;;4.23;100.00;102543.53;2615593;36;20030;-55
2023/03/02 10:06:59;;;;;;;37.22;17.55;;;;;;;4.14;100.00;102542.91;2612836;36;20045;-56
2023/03/02 10:09:27;;;;;;;41.05;16.48;;;;;;;4.07;100.00;102552.03;2613171;36;20045;-49
2023/03/02 10:12:22;;;;;;;38.17;16.95;;;;;;;4.19;100.00;102548.94;2616108;36;20451;-51
2023/03/02 10:14:56;;;;;;;39.28;16.15;;;;;;;4.41;100.00;102550.84;2615066;31;20038;-50
2023/03/02 10:17:40;;;;;;;39.22;17.00;;;;;;;4.37;100.00;102558.09;2614375;36;20507;-52
2023/03/02 10:20:15;;;;;;;38.08;15.95;;;;;;;4.16;100.00;102548.19;2615504;31;20037;-49
2023/03/02 10:22:49;;;;;;;35.72;16.10;;;;;;;4.13;100.00;102559.81;2615400;36;20026;-49
2023/03/02 10:25:31;;;;;;;39.60;16.15;;;;;;;4.04;100.00;102557.47;2615285;36;20072;-49
2023/03/02 10:28:12;;;;;;;33.70;15.10;;;;;;;4.20;100.00;102564.00;2614851;36;20030;-50
2023/03/02 10:30:41;;;;;;;34.28;15.20;;;;;;;4.31;100.00;102552.97;2612156;31;20524;-50
2023/03/02 10:33:16;;;;;;;38.17;16.27;;;;;;;4.40;100.00;102557.09;2614277;36;20038;-50
2023/03/02 10:35:48;;;;;;;42.58;16.83;;;;;;;4.59;100.00;102565.31;2615064;36;20042;-50
2023/03/02 10:38:19;;;;;;;36.75;15.90;;;;;;;4.60;100.00;102552.88;2614081;36;20065;-49
2023/03/02 10:40:52;;;;;;;36.00;16.02;;;;;;;4.48;100.00;102554.19;2613707;36;20038;-53
2023/03/02 10:43:31;;;;;;;35.53;16.73;;;;;;;4.55;100.00;102551.25;2614397;36;20038;-50
2023/03/02 10:46:02;;;;;;;36.13;17.17;;;;;;;4.69;100.00;102553.38;2615364;31;20078;-49
2023/03/02 10:48:30;;;;;;;39.10;17.05;;;;;;;4.54;100.00;102549.47;2614227;36;20424;-56
2023/03/02 10:51:00;;;;;;;40.40;16.33;;;;;;;4.70;100.00;102549.81;2613990;36;20045;-57
2023/03/02 10:53:28;;;;;;;39.13;16.67;;;;;;;4.73;100.00;102544.34;2614637;36;20046;-54
2023/03/02 10:55:57;;;;;;;35.78;16.33;;;;;;;4.73;100.00;102538.16;2614188;36;20035;-55
2023/03/02 10:58:33;;;;;;;37.50;16.20;;;;;;;4.65;100.00;102545.56;2613694;36;20030;-56
2023/03/02 11:01:04;;;;;;;41.92;16.73;;;;;;;4.78;100.00;102537.97;2613456;36;20046;-56
2023/03/02 11:03:33;;;;;;;37.85;16.08;;;;;;;4.98;100.00;102531.91;2612219;36;20435;-55
2023/03/02 11:06:17;;;;;;;39.03;15.40;;;;;;;4.96;100.00;102539.97;2612510;36;20038;-58
2023/03/02 11:08:46;;;;;;;39.53;17.77;;;;;;;5.00;100.00;102536.22;2612377;36;20538;-50
2023/03/02 11:11:24;;;;;;;41.28;16.40;;;;;;;5.00;100.00;102530.91;2613099;36;20046;-51
2023/03/02 11:13:55;;;;;;;32.60;15.07;;;;;;;4.98;100.00;102538.09;2613604;36;20042;-53
2023/03/02 11:16:29;;;;;;;36.20;15.77;;;;;;;5.02;100.00;102530.84;2613415;36;20038;-51
2023/03/02 11:19:00;;;;;;;36.72;15.48;;;;;;;5.09;100.00;102522.56;2612266;36;20037;-50
2023/03/02 11:21:34;;;;;;;32.22;15.32;;;;;;;5.34;100.00;102513.56;2612949;36;20038;-50
2023/03/02 11:24:09;;;;;;;32.40;14.63;;;;;;;5.29;100.00;102515.56;2612948;36;20102;-50
2023/03/02 11:26:41;;;;;;;30.45;14.65;;;;;;;5.29;100.00;102512.88;2613160;31;20046;-54